Time;durP1;ratioP1;P1;durP2;ratioP2;P2;SDS_P1;SDS_P2;PMS_P1;PMS_P2;Temp;Humidity;BMP_temperature;BMP_pressure;BME280_temperature;BME280_humidity;BME280_pressure;Samples;Min_cycle;Max_cycle;Signal;HPM_P1;HPM_P2
2022/11/04 00:01:40;;;;;;;7.13;3.77;;;12.40;99.90;;;;;;5074077;28;20206;-84
2022/11/04 00:04:08;;;;;;;6.17;3.70;;;12.30;99.90;;;;;;5080473;28;20210;-83
2022/11/04 00:06:35;;;;;;;7.63;4.17;;;12.30;99.90;;;;;;5061865;28;20203;-84
2022/11/04 00:09:05;;;;;;;6.90;3.70;;;12.40;99.90;;;;;;5059433;28;20632;-84
2022/11/04 00:14:17;;;;;;;5.07;3.53;;;12.30;99.90;;;;;;5069689;28;20248;-84
2022/11/04 00:28:41;;;;;;;8.17;4.10;;;12.30;99.90;;;;;;5057244;28;20293;-84
2022/11/04 00:30:30;;;;;;;7.53;4.10;;;12.20;99.90;;;;;;5063402;28;20225;-84
2022/11/04 00:35:47;;;;;;;6.47;4.20;;;12.20;99.90;;;;;;5080706;28;20201;-84
2022/11/04 00:38:14;;;;;;;6.50;5.40;;;12.20;99.90;;;;;;5072097;28;20250;-84
2022/11/04 00:40:42;;;;;;;7.73;5.30;;;12.20;99.90;;;;;;5079302;28;20626;-84
2022/11/04 00:43:09;;;;;;;6.40;4.73;;;12.20;99.90;;;;;;5064701;28;20701;-84
2022/11/04 00:45:36;;;;;;;5.40;4.13;;;12.10;99.90;;;;;;5060668;28;20293;-84
2022/11/04 00:48:03;;;;;;;6.10;3.90;;;12.20;99.90;;;;;;5069032;28;20290;-84
2022/11/04 00:50:30;;;;;;;6.67;4.10;;;12.30;99.90;;;;;;5068946;28;20218;-84
2022/11/04 00:52:59;;;;;;;6.00;3.63;;;12.20;99.90;;;;;;5078895;28;20230;-84
2022/11/04 00:55:26;;;;;;;8.53;4.67;;;12.20;99.90;;;;;;5079576;28;20206;-84
2022/11/04 00:57:54;;;;;;;7.57;3.87;;;12.10;99.90;;;;;;5077430;28;20227;-84
2022/11/04 01:00:21;;;;;;;6.97;3.90;;;12.00;99.90;;;;;;5069460;28;20230;-84
2022/11/04 01:02:48;;;;;;;8.30;4.00;;;12.10;99.90;;;;;;5073109;28;20195;-84
2022/11/04 01:05:15;;;;;;;7.97;3.87;;;12.10;99.90;;;;;;5074877;28;20293;-84
2022/11/04 01:07:42;;;;;;;5.73;3.87;;;12.20;99.90;;;;;;5078388;28;20214;-84
2022/11/04 01:10:09;;;;;;;5.20;3.87;;;12.20;99.90;;;;;;5078657;28;20222;-85
2022/11/04 01:12:36;;;;;;;5.23;3.80;;;12.20;99.90;;;;;;5059722;28;20210;-84
2022/11/04 01:15:05;;;;;;;8.37;4.00;;;12.40;99.90;;;;;;5064682;28;20306;-84
2022/11/04 01:17:32;;;;;;;8.07;3.50;;;12.40;99.90;;;;;;5060077;28;20265;-85
2022/11/04 01:19:59;;;;;;;6.13;3.80;;;12.40;99.90;;;;;;5060815;28;20218;-84
2022/11/04 01:22:26;;;;;;;5.03;3.60;;;12.40;99.90;;;;;;5063682;28;20285;-84
2022/11/04 01:24:53;;;;;;;4.77;3.27;;;12.30;99.90;;;;;;5079341;28;20202;-84
2022/11/04 01:27:19;;;;;;;4.80;3.50;;;12.40;99.90;;;;;;5077154;28;20414;-84
2022/11/04 01:29:46;;;;;;;5.60;3.37;;;12.40;99.90;;;;;;5075426;28;20222;-84
2022/11/04 01:32:14;;;;;;;5.43;3.70;;;12.30;99.90;;;;;;5062417;28;20210;-84
2022/11/04 01:34:41;;;;;;;7.40;3.50;;;12.40;99.90;;;;;;5055839;28;20207;-84
2022/11/04 01:37:08;;;;;;;6.57;3.87;;;12.10;99.90;;;;;;5062530;28;20237;-84
2022/11/04 01:39:35;;;;;;;11.83;4.80;;;12.10;99.90;;;;;;5073286;28;20597;-85
2022/11/04 01:42:02;;;;;;;8.13;4.43;;;12.00;99.90;;;;;;5075562;28;20202;-84
2022/11/04 01:44:51;;;;;;;10.37;4.90;;;11.90;99.90;;;;;;5074985;28;20190;-84
2022/11/04 01:47:21;;;;;;;6.87;4.87;;;11.90;99.90;;;;;;5056331;28;20349;-84
2022/11/04 01:49:53;;;;;;;7.37;4.63;;;11.80;99.90;;;;;;5056245;28;20223;-85
2022/11/04 01:52:26;;;;;;;6.97;4.60;;;11.80;99.90;;;;;;5059228;28;20229;-84
2022/11/04 01:54:57;;;;;;;8.00;4.97;;;11.70;99.90;;;;;;5061240;28;20274;-84
2022/11/04 01:57:30;;;;;;;7.93;4.23;;;11.80;99.90;;;;;;5058611;28;20282;-85
2022/11/04 02:00:00;;;;;;;7.13;4.20;;;11.70;99.90;;;;;;5077529;28;20228;-85
2022/11/04 02:02:28;;;;;;;9.77;4.27;;;11.70;99.90;;;;;;5074296;28;20266;-84
2022/11/04 02:04:55;;;;;;;5.43;3.93;;;11.70;99.90;;;;;;5057002;28;20203;-84
2022/11/04 02:07:23;;;;;;;4.90;3.13;;;11.60;99.90;;;;;;5055543;28;20663;-85
2022/11/04 02:09:50;;;;;;;5.20;3.33;;;11.60;99.90;;;;;;5060201;28;20275;-84
2022/11/04 02:15:01;;;;;;;4.27;3.23;;;11.70;99.90;;;;;;5074601;28;20208;-85
2022/11/04 02:17:47;;;;;;;5.87;3.20;;;11.60;99.90;;;;;;5070254;28;20219;-85
2022/11/04 02:20:29;;;;;;;6.80;2.70;;;11.70;99.90;;;;;;5063515;28;20291;-84
2022/11/04 02:23:26;;;;;;;5.07;3.00;;;11.60;99.90;;;;;;5074805;28;20198;-85
2022/11/04 02:26:13;;;;;;;2.93;2.63;;;11.60;99.90;;;;;;5053666;28;20211;-84
2022/11/04 02:28:54;;;;;;;6.37;2.97;;;11.60;99.90;;;;;;5068295;28;20198;-84
2022/11/04 02:31:30;;;;;;;4.13;3.00;;;11.60;99.90;;;;;;5073365;28;20217;-84
2022/11/04 02:34:04;;;;;;;3.80;3.10;;;11.60;99.90;;;;;;5067387;28;20197;-84
2022/11/04 02:36:40;;;;;;;4.23;3.10;;;11.60;99.90;;;;;;5070324;28;20731;-85
2022/11/04 02:39:17;;;;;;;3.57;3.07;;;11.70;99.90;;;;;;5072928;28;20198;-84
2022/11/04 02:41:53;;;;;;;3.70;2.73;;;11.60;99.90;;;;;;5073926;28;20659;-84
2022/11/04 02:44:25;;;;;;;14.90;3.07;;;11.70;99.90;;;;;;5055192;28;20211;-84
2022/11/04 02:47:00;;;;;;;4.00;3.07;;;11.50;99.90;;;;;;5068347;28;20198;-84
2022/11/04 02:49:32;;;;;;;3.50;2.50;;;11.60;99.90;;;;;;5074338;28;20225;-83
2022/11/04 02:52:05;;;;;;;3.10;2.27;;;11.50;99.90;;;;;;5075578;28;20236;-84
2022/11/04 02:54:36;;;;;;;3.27;2.70;;;11.50;99.90;;;;;;5074273;28;20209;-85
2022/11/04 02:57:08;;;;;;;4.80;2.73;;;11.50;99.90;;;;;;5068613;28;20210;-84
2022/11/04 02:59:39;;;;;;;4.70;2.83;;;11.50;99.90;;;;;;5057149;28;20227;-84
2022/11/04 03:02:10;;;;;;;2.57;2.23;;;11.60;99.90;;;;;;5076526;28;20201;-84
2022/11/04 03:04:41;;;;;;;3.40;2.80;;;11.50;99.90;;;;;;5062022;28;20207;-84
2022/11/04 03:07:12;;;;;;;4.07;2.90;;;11.60;99.90;;;;;;5060363;28;20199;-84
2022/11/04 03:09:44;;;;;;;3.23;2.93;;;11.60;99.90;;;;;;5076539;28;20245;-84
2022/11/04 03:12:16;;;;;;;5.80;3.40;;;11.70;99.90;;;;;;5077530;28;20186;-85
2022/11/04 03:14:48;;;;;;;3.07;2.57;;;11.70;99.90;;;;;;5070749;28;20667;-84
2022/11/04 03:17:21;;;;;;;4.07;2.53;;;11.60;99.90;;;;;;5074271;28;20717;-85
2022/11/04 03:19:53;;;;;;;2.33;1.97;;;11.60;99.90;;;;;;5075596;28;20678;-84
2022/11/04 03:22:22;;;;;;;3.60;2.00;;;11.70;99.90;;;;;;5077951;28;20206;-84
2022/11/04 03:24:50;;;;;;;2.43;2.20;;;11.60;99.90;;;;;;5080947;28;20275;-84
2022/11/04 03:27:24;;;;;;;2.00;1.80;;;11.60;99.90;;;;;;5075184;28;20201;-84
2022/11/04 03:29:58;;;;;;;3.30;1.70;;;11.50;99.90;;;;;;5068535;28;20593;-83
2022/11/04 03:32:37;;;;;;;2.00;1.60;;;11.50;99.90;;;;;;5061177;28;20297;-84
2022/11/04 03:35:04;;;;;;;1.83;1.73;;;11.50;99.90;;;;;;5079005;28;20206;-84
2022/11/04 03:37:32;;;;;;;2.13;1.40;;;11.50;99.90;;;;;;5059938;28;20225;-84
2022/11/04 03:39:59;;;;;;;1.50;1.40;;;11.50;99.90;;;;;;5065467;28;20218;-84
2022/11/04 03:42:27;;;;;;;1.93;1.80;;;11.50;99.90;;;;;;5071734;28;20194;-84
2022/11/04 03:44:56;;;;;;;1.80;1.40;;;11.50;99.90;;;;;;5073243;28;20198;-84
2022/11/04 03:47:27;;;;;;;1.93;1.73;;;11.40;99.90;;;;;;5062120;28;20199;-84
2022/11/04 03:49:59;;;;;;;1.83;1.73;;;11.20;99.90;;;;;;5073670;28;20226;-84
2022/11/04 03:52:26;;;;;;;2.60;1.97;;;11.30;99.90;;;;;;5077781;28;20230;-84
2022/11/04 03:54:53;;;;;;;2.03;1.80;;;11.30;99.90;;;;;;5061292;28;20210;-85
2022/11/04 03:57:31;;;;;;;2.17;1.97;;;11.30;99.90;;;;;;5077753;28;20214;-84
2022/11/04 04:00:08;;;;;;;2.27;2.00;;;11.30;99.90;;;;;;5080141;28;20226;-84
2022/11/04 04:03:02;;;;;;;2.43;2.23;;;11.20;99.90;;;;;;5068721;28;20256;-84
2022/11/04 04:05:32;;;;;;;2.67;2.47;;;11.20;99.90;;;;;;5066868;28;20195;-84
2022/11/04 04:08:10;;;;;;;3.57;2.80;;;11.10;99.90;;;;;;5073815;28;20286;-84
2022/11/04 04:10:42;;;;;;;3.33;3.03;;;11.10;99.90;;;;;;5062360;28;20225;-84
2022/11/04 04:13:18;;;;;;;3.47;2.80;;;11.10;99.90;;;;;;5079691;28;20202;-84
2022/11/04 04:15:50;;;;;;;3.60;3.10;;;11.20;99.90;;;;;;5063102;28;20373;-83
2022/11/04 04:18:29;;;;;;;3.30;3.00;;;11.20;99.90;;;;;;5073737;28;20225;-84
2022/11/04 04:20:58;;;;;;;4.10;2.83;;;11.00;99.90;;;;;;5081366;28;20233;-84
2022/11/04 04:29:02;;;;;;;4.47;2.77;;;10.90;99.90;;;;;;5062330;28;20379;-85
2022/11/04 04:31:50;;;;;;;4.43;2.53;;;10.80;99.90;;;;;;5059877;28;20253;-84
2022/11/04 04:34:21;;;;;;;3.03;2.83;;;10.80;99.90;;;;;;5055643;28;20210;-85
2022/11/04 04:36:53;;;;;;;3.20;2.20;;;10.80;99.90;;;;;;5054648;28;20718;-84
2022/11/04 04:45:00;;;;;;;2.87;2.67;;;10.80;99.90;;;;;;5054680;28;20205;-84
2022/11/04 04:47:30;;;;;;;3.10;2.80;;;10.70;99.90;;;;;;5054066;28;20207;-84
2022/11/04 04:50:00;;;;;;;2.77;2.57;;;10.80;99.90;;;;;;5054845;28;20223;-84
2022/11/04 04:52:29;;;;;;;3.43;2.63;;;10.80;99.90;;;;;;5055579;28;20207;-84
2022/11/04 04:54:56;;;;;;;2.97;2.73;;;10.80;99.90;;;;;;5058399;28;20205;-85
2022/11/04 04:57:23;;;;;;;4.43;3.37;;;10.90;99.90;;;;;;5059468;28;20210;-84
2022/11/04 04:59:50;;;;;;;6.27;4.60;;;10.90;99.90;;;;;;5058264;28;20575;-84
2022/11/04 05:02:17;;;;;;;3.90;2.83;;;10.90;99.90;;;;;;5058475;28;20199;-84
2022/11/04 05:04:43;;;;;;;3.87;2.90;;;10.90;99.90;;;;;;5070217;28;20656;-83
2022/11/04 05:07:12;;;;;;;3.40;2.80;;;11.00;99.90;;;;;;5070350;28;20601;-83
2022/11/04 05:09:38;;;;;;;3.00;2.80;;;11.00;99.90;;;;;;5061881;28;20252;-84
2022/11/04 05:12:06;;;;;;;3.23;2.93;;;10.90;99.90;;;;;;5068211;28;20204;-83
2022/11/04 05:14:33;;;;;;;3.10;2.80;;;10.80;99.90;;;;;;5062465;28;20218;-84
2022/11/04 05:17:00;;;;;;;3.70;2.67;;;10.80;99.90;;;;;;5066764;28;20214;-83
2022/11/04 05:19:27;;;;;;;4.13;2.90;;;10.70;99.90;;;;;;5060622;28;20675;-84
2022/11/04 05:21:54;;;;;;;2.90;2.70;;;10.60;99.90;;;;;;5068016;28;20206;-83
2022/11/04 05:24:22;;;;;;;6.17;4.30;;;10.50;99.90;;;;;;5061758;28;20202;-83
2022/11/04 05:26:49;;;;;;;4.43;2.90;;;10.50;99.90;;;;;;5062839;28;20201;-84
2022/11/04 05:29:15;;;;;;;3.23;2.93;;;10.50;99.90;;;;;;5067071;28;20202;-84
2022/11/04 05:31:43;;;;;;;3.10;2.80;;;10.40;99.90;;;;;;5062400;28;20386;-84
2022/11/04 05:34:10;;;;;;;3.87;2.97;;;10.50;99.90;;;;;;5073698;28;20194;-84
2022/11/04 05:36:38;;;;;;;5.47;2.80;;;10.60;99.90;;;;;;5066160;28;20213;-84
2022/11/04 05:39:05;;;;;;;2.93;2.73;;;10.60;99.90;;;;;;5066791;28;20218;-84
2022/11/04 05:41:33;;;;;;;12.47;7.77;;;10.50;99.90;;;;;;5068022;28;20775;-84
2022/11/04 05:44:02;;;;;;;3.77;3.30;;;10.50;99.90;;;;;;5065204;28;20795;-84
2022/11/04 05:46:30;;;;;;;3.87;3.30;;;10.60;99.90;;;;;;5060865;28;20229;-83
2022/11/04 05:48:56;;;;;;;4.53;3.30;;;10.60;99.90;;;;;;5064237;28;20204;-83
2022/11/04 05:51:26;;;;;;;3.30;3.00;;;10.60;99.90;;;;;;5063246;28;20218;-83
2022/11/04 05:53:53;;;;;;;3.63;3.30;;;10.70;99.90;;;;;;5068821;28;20198;-84
2022/11/04 05:56:20;;;;;;;4.50;3.50;;;10.60;99.90;;;;;;5061726;28;20210;-84
2022/11/04 05:58:48;;;;;;;4.53;3.43;;;10.70;99.90;;;;;;5067854;28;20685;-84
2022/11/04 06:01:26;;;;;;;4.27;3.87;;;10.70;99.90;;;;;;5063236;28;20227;-85
2022/11/04 06:03:53;;;;;;;5.67;3.53;;;10.80;99.90;;;;;;5060609;28;20204;-85
2022/11/04 06:06:21;;;;;;;3.87;3.40;;;10.80;99.90;;;;;;5068243;28;20301;-83
2022/11/04 06:08:50;;;;;;;4.43;3.50;;;10.70;99.90;;;;;;5071410;28;20195;-85
2022/11/04 06:11:17;;;;;;;5.30;3.00;;;10.70;99.90;;;;;;5068837;28;20224;-82
2022/11/04 06:13:44;;;;;;;9.83;3.90;;;10.60;99.90;;;;;;5065430;28;20214;-84
2022/11/04 06:16:15;;;;;;;9.87;4.53;;;10.60;99.90;;;;;;5068451;28;20237;-81
2022/11/04 06:18:41;;;;;;;5.37;4.80;;;10.60;99.90;;;;;;5067232;28;20223;-83
2022/11/04 06:21:23;;;;;;;7.00;5.03;;;10.60;99.90;;;;;;5061386;28;20246;-84
2022/11/04 06:23:50;;;;;;;5.70;4.80;;;10.60;99.90;;;;;;5064115;28;20216;-84
2022/11/04 06:26:18;;;;;;;6.17;4.53;;;10.70;99.90;;;;;;5061650;28;20200;-84
2022/11/04 06:28:45;;;;;;;6.03;4.53;;;10.70;99.90;;;;;;5069019;28;20194;-83
2022/11/04 06:31:14;;;;;;;5.50;4.80;;;10.60;99.90;;;;;;5069779;28;20222;-83
2022/11/04 06:33:41;;;;;;;4.97;4.47;;;10.60;99.90;;;;;;5064490;28;20290;-83
2022/11/04 06:36:10;;;;;;;4.20;3.80;;;10.60;99.90;;;;;;5063294;28;20212;-84
2022/11/04 06:38:37;;;;;;;3.80;3.50;;;10.60;99.90;;;;;;5066333;28;20226;-84
2022/11/04 06:41:05;;;;;;;8.70;4.00;;;10.70;99.90;;;;;;5069975;28;20218;-84
2022/11/04 06:43:32;;;;;;;5.90;4.13;;;10.70;99.90;;;;;;5065593;28;20616;-84
2022/11/04 06:46:00;;;;;;;4.83;3.30;;;10.70;99.90;;;;;;5073017;28;20652;-84
2022/11/04 06:48:30;;;;;;;3.83;3.53;;;10.70;99.90;;;;;;5074367;28;20194;-84
2022/11/04 06:50:57;;;;;;;4.00;3.60;;;10.60;99.90;;;;;;5066947;28;20232;-84
2022/11/04 06:53:24;;;;;;;4.50;3.40;;;10.60;99.90;;;;;;5073968;28;20259;-84
2022/11/04 06:55:52;;;;;;;5.47;4.63;;;10.50;99.90;;;;;;5073835;28;20203;-84
2022/11/04 06:58:19;;;;;;;3.57;3.27;;;10.60;99.90;;;;;;5075916;28;20225;-85
2022/11/04 07:00:52;;;;;;;4.53;3.20;;;10.60;99.90;;;;;;5080778;28;20713;-84
2022/11/04 07:03:19;;;;;;;7.43;3.13;;;10.60;99.90;;;;;;5073949;28;20194;-84
2022/11/04 07:05:47;;;;;;;5.17;3.30;;;10.50;99.90;;;;;;5076400;28;20202;-84
2022/11/04 07:08:14;;;;;;;6.97;3.83;;;10.60;99.90;;;;;;5070757;28;20222;-84
2022/11/04 07:10:41;;;;;;;5.47;3.70;;;10.60;99.90;;;;;;5072705;28;20226;-84
2022/11/04 07:13:07;;;;;;;5.53;3.20;;;10.60;99.90;;;;;;5074000;28;20199;-81
2022/11/04 07:15:34;;;;;;;4.20;3.53;;;10.60;99.90;;;;;;5072713;28;20240;-85
2022/11/04 07:18:01;;;;;;;5.03;3.20;;;10.60;99.90;;;;;;5066676;28;20199;-84
2022/11/04 07:20:28;;;;;;;3.57;3.23;;;10.60;99.90;;;;;;5074497;28;20233;-84
2022/11/04 07:22:56;;;;;;;3.97;3.57;;;10.60;99.90;;;;;;5067030;28;20651;-85
2022/11/04 07:25:23;;;;;;;7.43;3.73;;;10.60;99.90;;;;;;5076441;28;20198;-84
2022/11/04 07:27:50;;;;;;;5.70;4.50;;;10.60;99.90;;;;;;5070773;28;20202;-84
2022/11/04 07:30:18;;;;;;;5.50;4.40;;;10.70;99.90;;;;;;5069607;28;20215;-84
2022/11/04 07:32:44;;;;;;;7.83;5.50;;;10.80;99.90;;;;;;5067346;28;20233;-85
2022/11/04 07:35:11;;;;;;;7.57;5.20;;;10.70;99.90;;;;;;5073154;28;20194;-85
2022/11/04 07:37:38;;;;;;;6.30;4.90;;;10.80;99.90;;;;;;5071000;28;20209;-86
2022/11/04 07:40:08;;;;;;;13.77;7.30;;;10.80;99.90;;;;;;5075570;28;20217;-85
2022/11/04 07:42:35;;;;;;;14.17;8.63;;;10.90;99.90;;;;;;5076224;28;20297;-85
2022/11/04 07:45:02;;;;;;;8.27;5.40;;;10.90;99.90;;;;;;5067580;28;20198;-86
2022/11/04 07:47:30;;;;;;;6.13;4.50;;;10.90;99.90;;;;;;5068296;28;20203;-84
2022/11/04 07:49:57;;;;;;;5.77;4.30;;;10.90;99.90;;;;;;5071075;28;20595;-85
2022/11/04 07:52:24;;;;;;;9.57;4.67;;;10.90;99.90;;;;;;5073221;28;20216;-84
2022/11/04 07:54:51;;;;;;;9.27;5.10;;;10.90;99.90;;;;;;5068637;28;20569;-84
2022/11/04 07:57:19;;;;;;;7.57;5.27;;;10.90;99.90;;;;;;5079202;28;20577;-84
2022/11/04 07:59:46;;;;;;;7.03;5.07;;;11.00;99.90;;;;;;5072227;28;20236;-84
2022/11/04 08:02:12;;;;;;;7.97;5.50;;;11.00;99.90;;;;;;5077106;28;20745;-85
2022/11/04 08:04:40;;;;;;;10.30;5.30;;;11.00;99.90;;;;;;5070271;28;20271;-86
2022/11/04 08:07:08;;;;;;;9.70;5.30;;;10.90;99.90;;;;;;5077296;28;20285;-85
2022/11/04 08:09:36;;;;;;;9.20;5.30;;;10.90;99.90;;;;;;5072364;28;20226;-85
2022/11/04 08:12:03;;;;;;;19.63;11.77;;;11.10;99.90;;;;;;5078738;28;20206;-84
2022/11/04 08:14:31;;;;;;;8.17;3.90;;;10.90;99.90;;;;;;5069016;28;20210;-85
2022/11/04 08:16:58;;;;;;;12.03;3.40;;;11.00;99.90;;;;;;5074013;28;20202;-84
2022/11/04 08:19:25;;;;;;;4.03;3.03;;;11.00;99.90;;;;;;5072104;28;20664;-85
2022/11/04 08:21:52;;;;;;;6.10;3.07;;;11.10;99.90;;;;;;5069538;28;20658;-84
2022/11/04 08:24:19;;;;;;;5.53;3.40;;;11.10;99.90;;;;;;5066374;28;20205;-84
2022/11/04 08:26:46;;;;;;;7.00;3.60;;;11.10;99.90;;;;;;5075076;28;20207;-85
2022/11/04 08:29:13;;;;;;;5.13;3.33;;;11.10;99.90;;;;;;5073843;28;20290;-84
2022/11/04 08:31:41;;;;;;;6.23;3.43;;;11.00;99.90;;;;;;5075284;28;20206;-84
2022/11/04 08:34:08;;;;;;;5.77;3.33;;;11.00;99.90;;;;;;5068841;28;20198;-84
2022/11/04 08:36:39;;;;;;;9.27;3.77;;;11.20;99.90;;;;;;5074738;28;20227;-85
2022/11/04 08:39:08;;;;;;;5.53;3.47;;;11.20;99.90;;;;;;5067569;28;20215;-84
2022/11/04 08:41:36;;;;;;;7.87;3.17;;;11.20;99.90;;;;;;5068397;28;20207;-84
2022/11/04 08:44:03;;;;;;;7.67;4.03;;;11.20;99.90;;;;;;5059722;28;20206;-84
2022/11/04 08:46:33;;;;;;;5.10;3.57;;;11.40;99.90;;;;;;5069496;28;20195;-85
2022/11/04 08:49:02;;;;;;;10.20;4.03;;;11.40;99.90;;;;;;5063836;28;20191;-85
2022/11/04 08:51:29;;;;;;;10.10;4.90;;;11.40;99.90;;;;;;5062126;28;20199;-85
2022/11/04 08:53:56;;;;;;;11.17;4.83;;;11.50;99.90;;;;;;5069623;28;20212;-85
2022/11/04 08:56:25;;;;;;;7.93;5.10;;;11.70;99.90;;;;;;5071546;28;20297;-84
2022/11/04 08:58:53;;;;;;;8.53;4.83;;;11.70;99.90;;;;;;5062126;28;20214;-85
2022/11/04 09:01:20;;;;;;;7.07;5.00;;;11.80;99.90;;;;;;5068270;28;20222;-85
2022/11/04 09:03:48;;;;;;;6.67;4.70;;;11.80;99.90;;;;;;5067614;28;20843;-85
2022/11/04 09:06:19;;;;;;;7.07;4.47;;;11.80;99.90;;;;;;5072244;28;20204;-85
2022/11/04 09:08:46;;;;;;;8.33;4.50;;;11.80;99.90;;;;;;5066972;28;20663;-85
2022/11/04 09:11:15;;;;;;;7.67;4.77;;;11.80;99.90;;;;;;5067959;28;20224;-86
2022/11/04 09:13:43;;;;;;;7.43;3.67;;;11.80;99.90;;;;;;5069817;28;20212;-85
2022/11/04 09:16:12;;;;;;;6.23;3.80;;;11.80;99.90;;;;;;5075041;28;20206;-84
2022/11/04 09:18:39;;;;;;;7.83;3.60;;;11.70;99.90;;;;;;5073090;28;20289;-84
2022/11/04 09:21:08;;;;;;;7.27;3.47;;;11.70;99.90;;;;;;5071266;28;20222;-84
2022/11/04 09:23:37;;;;;;;5.70;4.50;;;11.80;99.90;;;;;;5071562;28;20569;-84
2022/11/04 09:26:09;;;;;;;8.50;4.50;;;11.70;99.90;;;;;;5075884;28;20194;-83
2022/11/04 09:28:36;;;;;;;8.80;4.30;;;11.60;1.00;;;;;;5069171;28;20205;-84
2022/11/04 09:31:05;;;;;;;8.07;4.33;;;11.70;1.00;;;;;;5072327;28;20221;-85
2022/11/04 09:33:33;;;;;;;7.50;5.10;;;11.70;20.70;;;;;;5077601;28;20216;-84
2022/11/04 09:35:59;;;;;;;11.93;5.17;;;11.60;19.80;;;;;;5076786;28;20202;-85
2022/11/04 09:38:27;;;;;;;9.50;4.90;;;11.60;1.00;;;;;;5070940;28;20217;-83
2022/11/04 09:40:56;;;;;;;7.53;5.40;;;11.70;99.90;;;;;;5070520;28;20230;-85
2022/11/04 09:43:37;;;;;;;11.50;5.50;;;11.70;42.60;;;;;;5065791;28;20655;-84
2022/11/04 09:46:05;;;;;;;13.60;6.87;;;11.80;99.90;;;;;;5066723;28;20206;-85
2022/11/04 09:48:36;;;;;;;12.07;5.83;;;11.80;52.60;;;;;;5072257;28;20207;-84
2022/11/04 09:51:06;;;;;;;8.33;5.30;;;11.90;63.90;;;;;;5070183;28;20229;-85
2022/11/04 09:53:40;;;;;;;9.00;5.10;;;11.90;8.00;;;;;;5066673;28;20202;-85
2022/11/04 09:56:16;;;;;;;7.43;4.73;;;11.90;1.00;;;;;;5065916;28;20202;-85
2022/11/04 09:58:43;;;;;;;8.43;4.97;;;12.00;1.00;;;;;;5062690;28;20209;-85
2022/11/04 10:01:26;;;;;;;7.23;4.80;;;12.10;1.00;;;;;;5071057;28;20665;-85
2022/11/04 10:04:06;;;;;;;10.07;5.00;;;12.10;1.00;;;;;;5066801;28;20285;-85
2022/11/04 10:06:40;;;;;;;7.83;4.60;;;12.20;1.00;;;;;;5069657;28;20210;-85
2022/11/04 10:09:21;;;;;;;10.80;6.37;;;12.30;1.00;;;;;;5068954;28;20204;-84
2022/11/04 10:12:01;;;;;;;8.73;4.53;;;12.40;1.00;;;;;;5064479;28;20721;-85
2022/11/04 10:14:47;;;;;;;7.93;4.90;;;12.40;99.90;;;;;;5070529;28;20304;-86
2022/11/04 10:17:28;;;;;;;7.10;4.50;;;12.60;1.00;;;;;;5070352;28;20212;-86
2022/11/04 10:20:13;;;;;;;8.20;4.73;;;12.70;1.00;;;;;;5062307;28;20222;-85
2022/11/04 10:22:56;;;;;;;7.53;4.03;;;12.80;99.90;;;;;;5062559;28;20392;-87
2022/11/04 10:25:28;;;;;;;9.03;5.07;;;13.10;1.00;;;;;;5075169;28;20198;-87
2022/11/04 10:27:58;;;;;;;8.03;4.10;;;13.00;1.00;;;;;;5069917;28;20214;-85
2022/11/04 10:30:28;;;;;;;6.73;4.33;;;13.10;99.90;;;;;;5070348;28;20678;-86
2022/11/04 10:33:03;;;;;;;5.83;3.73;;;13.20;1.00;;;;;;5077796;28;20198;-86
2022/11/04 10:35:35;;;;;;;9.33;4.67;;;13.10;1.00;;;;;;5078463;28;20198;-86
2022/11/04 10:38:17;;;;;;;9.00;4.17;;;13.00;99.90;;;;;;5072642;28;20202;-86
2022/11/04 10:40:47;;;;;;;6.83;3.83;;;13.00;99.90;;;;;;5071253;28;20314;-86
2022/11/04 10:43:20;;;;;;;7.67;4.73;;;13.10;1.00;;;;;;5073885;28;20213;-85
2022/11/04 10:45:58;;;;;;;12.37;4.73;;;12.90;1.00;;;;;;5078699;28;20202;-85
2022/11/04 10:48:30;;;;;;;10.53;4.73;;;12.80;99.90;;;;;;5078014;28;20217;-85
2022/11/04 10:50:58;;;;;;;9.10;4.93;;;12.80;1.00;;;;;;5078469;28;20309;-86
2022/11/04 10:53:27;;;;;;;13.57;4.37;;;12.80;99.90;;;;;;5067162;28;20203;-84
2022/11/04 10:56:02;;;;;;;9.10;4.10;;;12.90;1.00;;;;;;5073110;28;20195;-86
2022/11/04 10:58:32;;;;;;;9.43;4.77;;;13.00;1.00;;;;;;5078378;28;20202;-86
2022/11/04 11:01:00;;;;;;;9.63;4.40;;;13.20;1.00;;;;;;5067771;28;20602;-86
2022/11/04 11:03:31;;;;;;;5.60;3.70;;;13.50;37.90;;;;;;5064037;28;20210;-85
2022/11/04 11:06:15;;;;;;;7.27;3.83;;;13.70;1.00;;;;;;5070083;28;20191;-87
2022/11/04 11:08:43;;;;;;;8.30;3.73;;;13.80;99.90;;;;;;5072598;28;20204;-86
2022/11/04 11:11:11;;;;;;;7.13;4.77;;;14.00;99.90;;;;;;5069269;28;20633;-86
2022/11/04 11:13:41;;;;;;;8.77;3.90;;;13.80;1.00;;;;;;5071590;28;20222;-84
2022/11/04 11:16:12;;;;;;;4.47;3.30;;;13.90;99.90;;;;;;5062887;28;20203;-85
2022/11/04 11:18:40;;;;;;;6.57;3.40;;;14.00;1.00;;;;;;5076235;28;20714;-85
2022/11/04 11:21:14;;;;;;;6.40;3.30;;;13.90;1.00;;;;;;5066716;28;20229;-85
2022/11/04 11:23:45;;;;;;;9.37;3.73;;;13.50;1.00;;;;;;5074688;28;20229;-86
2022/11/04 11:26:15;;;;;;;8.47;4.07;;;13.50;1.00;;;;;;5071127;28;20684;-85
2022/11/04 11:28:49;;;;;;;7.27;3.40;;;13.60;1.00;;;;;;5076930;28;20202;-86
2022/11/04 11:31:22;;;;;;;6.37;3.63;;;13.50;1.00;;;;;;5068366;28;20684;-85
2022/11/04 11:33:53;;;;;;;5.87;3.60;;;13.60;1.00;;;;;;5067562;28;20225;-87
2022/11/04 11:36:23;;;;;;;7.70;3.70;;;13.50;1.00;;;;;;5070567;28;20253;-86
2022/11/04 11:39:00;;;;;;;6.93;3.77;;;13.40;15.20;;;;;;5059220;28;20213;-86
2022/11/04 11:41:34;;;;;;;5.00;3.20;;;13.40;1.00;;;;;;5071910;28;20240;-86
2022/11/04 11:44:17;;;;;;;9.20;3.83;;;13.40;99.90;;;;;;5066162;28;20209;-87
2022/11/04 11:46:53;;;;;;;7.70;4.10;;;13.50;99.90;;;;;;5070308;28;20202;-85
2022/11/04 11:49:27;;;;;;;5.50;3.50;;;13.40;1.00;;;;;;5068270;28;20866;-85
2022/11/04 11:51:55;;;;;;;6.87;3.10;;;13.30;1.00;;;;;;5061337;28;20201;-86
2022/11/04 11:54:32;;;;;;;3.97;3.20;;;13.30;1.00;;;;;;5070054;28;20202;-86
2022/11/04 11:57:04;;;;;;;6.37;3.53;;;13.30;1.00;;;;;;5061348;28;20565;-86
2022/11/04 11:59:42;;;;;;;5.97;3.70;;;13.30;1.00;;;;;;5069225;28;20214;-86
2022/11/04 12:02:25;;;;;;;4.90;3.50;;;13.30;1.00;;;;;;5069502;28;20285;-88
2022/11/04 12:04:53;;;;;;;8.77;3.83;;;13.30;1.00;;;;;;5072382;28;20233;-85
2022/11/04 12:07:29;;;;;;;8.57;3.60;;;13.70;1.00;;;;;;5070366;28;20195;-85
2022/11/04 12:10:02;;;;;;;6.13;3.17;;;14.30;99.90;;;;;;5064373;28;20218;-86
2022/11/04 12:12:42;;;;;;;4.93;3.43;;;14.80;1.00;;;;;;5067509;28;20207;-85
2022/11/04 12:15:23;;;;;;;4.30;3.10;;;14.30;1.00;;;;;;5066736;28;20217;-84
2022/11/04 12:18:02;;;;;;;8.23;3.40;;;14.50;1.00;;;;;;5067188;28;20572;-87
2022/11/04 12:20:51;;;;;;;5.30;2.90;;;15.30;99.90;;;;;;5061208;28;20793;-86
2022/11/04 12:23:26;;;;;;;3.80;3.07;;;14.90;99.90;;;;;;5065776;28;20552;-86
2022/11/04 12:26:05;;;;;;;5.57;3.30;;;14.20;1.00;;;;;;5064621;28;20198;-86
2022/11/04 12:28:46;;;;;;;5.73;3.13;;;14.20;1.00;;;;;;5064056;28;20221;-85
2022/11/04 12:31:27;;;;;;;4.07;2.97;;;14.00;1.00;;;;;;5059436;28;20233;-86
2022/11/04 12:34:01;;;;;;;7.47;3.37;;;14.30;1.00;;;;;;5066261;28;20204;-85
2022/11/04 12:36:43;;;;;;;5.63;3.13;;;14.30;1.00;;;;;;5068207;28;20203;-86
2022/11/04 12:39:23;;;;;;;5.50;3.30;;;14.40;1.00;;;;;;5065233;28;20237;-86
2022/11/04 12:42:00;;;;;;;4.67;3.10;;;14.10;1.00;;;;;;5059921;28;20220;-86
2022/11/04 12:44:33;;;;;;;5.50;3.40;;;14.20;1.00;;;;;;5065055;28;20202;-86
2022/11/04 12:47:15;;;;;;;5.40;3.03;;;14.50;1.00;;;;;;5070251;28;20198;-86
2022/11/04 12:50:11;;;;;;;5.17;3.10;;;14.90;1.00;;;;;;5065614;28;20238;-86
2022/11/04 12:52:58;;;;;;;6.57;3.50;;;14.80;99.90;;;;;;5069291;28;20567;-86
2022/11/04 12:55:34;;;;;;;2.90;2.60;;;15.20;99.90;;;;;;5065335;28;20199;-86
2022/11/04 12:58:17;;;;;;;7.75;2.97;;;15.00;99.90;;;;;;5071995;28;20198;-86
2022/11/04 13:00:48;;;;;;;5.57;3.53;;;14.60;1.00;;;;;;5066577;28;20230;-86
2022/11/04 13:03:22;;;;;;;6.47;2.73;;;14.60;1.00;;;;;;5069332;28;20218;-85
2022/11/04 13:05:52;;;;;;;5.43;2.77;;;14.50;1.00;;;;;;5066188;28;20205;-86
2022/11/04 13:08:25;;;;;;;4.63;2.58;;;14.60;99.90;;;;;;5068096;28;20198;-84
2022/11/04 13:10:57;;;;;;;4.23;2.60;;;14.50;99.90;;;;;;5064048;28;20210;-86
2022/11/04 13:13:29;;;;;;;4.07;2.50;;;14.30;1.00;;;;;;5067673;28;20198;-87
2022/11/04 13:15:59;;;;;;;5.37;3.00;;;14.30;1.00;;;;;;5068667;28;20214;-85
2022/11/04 13:18:33;;;;;;;4.17;2.93;;;14.10;1.00;;;;;;5072054;28;20207;-86
2022/11/04 13:21:04;;;;;;;5.03;3.07;;;13.90;1.00;;;;;;5073477;28;20222;-86
2022/11/04 13:23:39;;;;;;;4.00;2.90;;;13.80;1.00;;;;;;5074641;28;20221;-86
2022/11/04 13:26:11;;;;;;;5.20;3.30;;;13.70;75.00;;;;;;5075376;28;20221;-85
2022/11/04 13:28:40;;;;;;;6.40;3.90;;;13.50;99.90;;;;;;5078455;28;20197;-86
2022/11/04 13:31:13;;;;;;;8.73;5.13;;;13.50;99.90;;;;;;5066577;28;20630;-85
2022/11/04 13:33:50;;;;;;;9.07;4.43;;;13.40;99.90;;;;;;5068907;28;20262;-85
2022/11/04 13:36:29;;;;;;;5.17;3.27;;;13.40;99.90;;;;;;5066017;28;20203;-84
2022/11/04 13:39:00;;;;;;;4.30;2.90;;;13.20;99.90;;;;;;5063328;28;20202;-84